Time;durP1;ratioP1;P1;durP2;ratioP2;P2;SDS_P1;SDS_P2;PMS_P1;PMS_P2;Temp;Humidity;BMP_temperature;BMP_pressure;BME280_temperature;BME280_humidity;BME280_pressure;Samples;Min_cycle;Max_cycle;Signal;HPM_P1;HPM_P2
2023/06/29 00:01:35;;;;;;;5.45;2.40;;;;;;;19.16;57.62;96694.25;10339742;28;20042;-30
2023/06/29 00:06:37;;;;;;;6.13;2.53;;;;;;;19.12;57.89;96687.50;10339897;28;20034;-29
2023/06/29 00:11:37;;;;;;;3.45;2.53;;;;;;;19.09;58.04;96686.66;10331631;28;20026;-29
2023/06/29 00:16:37;;;;;;;3.40;2.27;;;;;;;18.95;58.38;96673.16;10339058;28;20148;-30
2023/06/29 00:21:38;;;;;;;5.17;2.63;;;;;;;18.94;58.04;96676.56;10347485;28;20042;-30
2023/06/29 00:26:39;;;;;;;5.97;2.72;;;;;;;19.02;58.20;96664.69;10331353;28;20073;-29
2023/06/29 00:31:39;;;;;;;5.73;2.50;;;;;;;18.97;58.07;96667.25;10330376;28;20437;-30
2023/06/29 00:36:40;;;;;;;6.17;2.50;;;;;;;18.67;59.20;96663.94;10328667;28;20414;-30
2023/06/29 00:41:40;;;;;;;3.45;2.47;;;;;;;18.81;58.69;96667.25;10333806;28;20060;-29
2023/06/29 00:46:41;;;;;;;4.63;2.83;;;;;;;18.81;58.57;96675.72;10334766;28;20026;-30
2023/06/29 00:51:42;;;;;;;3.63;2.70;;;;;;;18.88;58.43;96666.41;10340192;28;20497;-30
2023/06/29 00:56:42;;;;;;;4.00;2.65;;;;;;;18.77;58.60;96674.03;10329522;28;20424;-30
2023/06/29 01:01:43;;;;;;;3.53;2.42;;;;;;;18.74;58.84;96668.97;10327679;28;20456;-29
2023/06/29 01:06:56;;;;;;;4.55;2.65;;;;;;;18.77;58.71;96661.34;10332655;28;20541;-29
2023/06/29 01:11:58;;;;;;;3.50;2.10;;;;;;;18.85;58.09;96657.09;10327662;28;20187;-30
2023/06/29 01:17:01;;;;;;;3.80;2.30;;;;;;;18.91;57.99;96656.28;10335799;28;20038;-30
2023/06/29 01:22:04;;;;;;;4.28;2.92;;;;;;;18.94;57.88;96643.56;10328783;28;20566;-29
2023/06/29 01:27:07;;;;;;;4.25;2.22;;;;;;;18.93;57.98;96644.41;10326950;28;20597;-30
2023/06/29 01:32:10;;;;;;;3.20;2.28;;;;;;;18.91;57.60;96641.06;10343293;28;20033;-29
2023/06/29 01:37:19;;;;;;;5.80;2.15;;;;;;;18.79;58.30;96648.69;10326487;28;20026;-29
2023/06/29 01:42:20;;;;;;;6.15;2.33;;;;;;;18.67;58.71;96648.72;10325941;28;20036;-30
2023/06/29 01:47:22;;;;;;;4.57;2.42;;;;;;;18.64;58.48;96641.09;10333363;28;20030;-30
2023/06/29 01:52:24;;;;;;;4.40;2.72;;;;;;;18.39;59.15;96639.44;10341800;28;20026;-29
2023/06/29 01:57:24;;;;;;;3.78;2.60;;;;;;;18.39;59.34;96640.28;10335384;28;20034;-30
2023/06/29 02:02:26;;;;;;;4.88;2.25;;;;;;;18.44;59.28;96638.63;10325417;28;20129;-30
2023/06/29 02:07:26;;;;;;;5.00;2.50;;;;;;;18.52;58.77;96639.44;10327020;28;20109;-30
2023/06/29 02:12:27;;;;;;;2.83;2.23;;;;;;;18.59;58.55;96632.66;10324589;28;20029;-30
2023/06/29 02:17:27;;;;;;;5.30;2.40;;;;;;;18.68;57.96;96637.72;10330030;28;20044;-30
2023/06/29 02:22:27;;;;;;;3.57;1.73;;;;;;;18.78;57.42;96630.09;10331098;28;20037;-30
2023/06/29 02:27:28;;;;;;;2.90;2.17;;;;;;;18.86;57.05;96633.47;10332730;28;20038;-30
2023/06/29 02:32:28;;;;;;;4.17;2.00;;;;;;;18.87;56.92;96634.28;10335070;28;20030;-29
2023/06/29 02:37:28;;;;;;;4.85;1.92;;;;;;;18.88;56.94;96625.81;10349936;28;20398;-30
2023/06/29 02:42:29;;;;;;;5.10;1.87;;;;;;;18.87;56.83;96622.47;10329202;28;20489;-30
2023/06/29 02:47:29;;;;;;;3.50;1.77;;;;;;;18.88;56.59;96625.81;10336047;28;20289;-29
2023/06/29 02:52:30;;;;;;;4.35;2.00;;;;;;;18.88;56.47;96616.53;10337897;28;20034;-30
2023/06/29 02:57:30;;;;;;;3.13;2.08;;;;;;;18.88;56.48;96621.59;10330393;28;20030;-30
2023/06/29 03:02:32;;;;;;;3.60;1.83;;;;;;;18.85;56.71;96623.31;10328132;28;20086;-30
2023/06/29 03:07:34;;;;;;;5.07;2.30;;;;;;;18.97;56.57;96615.63;10332727;28;20498;-30
2023/06/29 03:12:35;;;;;;;5.40;1.60;;;;;;;18.86;56.38;96612.31;10341372;28;20026;-29
2023/06/29 03:17:36;;;;;;;3.00;2.07;;;;;;;18.83;56.79;96607.25;10346027;28;20183;-30
2023/06/29 03:22:36;;;;;;;3.03;1.95;;;;;;;18.84;56.58;96607.22;10368453;28;20292;-29
2023/06/29 03:27:37;;;;;;;5.27;2.47;;;;;;;18.87;56.47;96614.00;10341566;28;20033;-31
2023/06/29 03:32:37;;;;;;;2.60;2.08;;;;;;;18.78;56.57;96609.81;10336337;28;20602;-30
2023/06/29 03:37:38;;;;;;;3.60;2.23;;;;;;;18.85;56.58;96610.63;10359849;28;20508;-29
2023/06/29 03:42:38;;;;;;;3.37;1.60;;;;;;;18.81;56.65;96596.25;10339007;28;20297;-30
2023/06/29 03:47:41;;;;;;;4.47;2.03;;;;;;;18.91;56.38;96597.94;10363038;28;20030;-30
2023/06/29 03:52:41;;;;;;;3.72;2.10;;;;;;;18.77;56.61;96602.19;10364707;28;20026;-29
2023/06/29 03:57:41;;;;;;;3.33;1.80;;;;;;;19.21;55.80;96606.28;10342763;28;20042;-30
2023/06/29 04:02:42;;;;;;;3.97;1.90;;;;;;;19.15;55.72;96610.50;10347979;28;20089;-29
2023/06/29 04:07:42;;;;;;;5.05;2.58;;;;;;;19.22;55.54;96612.19;10344896;28;20335;-29
2023/06/29 04:12:43;;;;;;;5.17;2.10;;;;;;;19.13;55.71;96612.19;10374145;28;20559;-29
2023/06/29 04:17:43;;;;;;;4.20;2.47;;;;;;;19.05;55.96;96602.09;10343854;28;20466;-30
2023/06/29 04:22:43;;;;;;;4.60;1.77;;;;;;;19.08;55.97;96608.84;10339164;28;20454;-29
2023/06/29 04:27:44;;;;;;;3.85;2.20;;;;;;;18.73;56.99;96597.97;10339162;28;20033;-30
2023/06/29 04:32:46;;;;;;;3.80;2.87;;;;;;;18.70;57.73;96596.31;10336726;28;20026;-30
2023/06/29 04:37:47;;;;;;;4.75;2.22;;;;;;;18.95;56.85;96589.44;10338088;28;20044;-29
2023/06/29 04:42:48;;;;;;;4.93;2.03;;;;;;;18.90;56.69;96584.38;10331793;28;20026;-29
2023/06/29 04:47:51;;;;;;;4.43;2.00;;;;;;;18.99;56.19;96586.06;10337804;28;20026;-30
2023/06/29 04:52:53;;;;;;;2.90;1.67;;;;;;;19.02;56.17;96584.31;10337678;28;20280;-29
2023/06/29 04:57:53;;;;;;;6.50;2.33;;;;;;;19.13;56.10;96586.81;10335895;28;20517;-29
2023/06/29 05:02:54;;;;;;;3.30;1.80;;;;;;;19.19;55.81;96581.75;10346442;28;20034;-30
2023/06/29 05:07:54;;;;;;;2.53;1.77;;;;;;;19.26;56.07;96565.66;10328902;28;20030;-29
2023/06/29 05:12:54;;;;;;;3.03;1.90;;;;;;;19.37;55.58;96577.44;10343840;28;20030;-29
2023/06/29 05:17:55;;;;;;;3.83;1.90;;;;;;;19.35;55.74;96573.22;10360148;28;20386;-30
2023/06/29 05:22:55;;;;;;;5.87;2.20;;;;;;;19.42;56.02;96570.63;10375460;28;20033;-31
2023/06/29 05:27:56;;;;;;;4.47;2.20;;;;;;;19.55;56.35;96569.69;10367912;28;20049;-29
2023/06/29 05:32:56;;;;;;;4.90;1.95;;;;;;;19.48;56.75;96569.72;10381852;28;20038;-30
2023/06/29 05:37:57;;;;;;;3.47;1.87;;;;;;;19.60;56.79;96574.75;10361429;28;20042;-30
2023/06/29 05:42:58;;;;;;;5.00;2.28;;;;;;;19.68;56.50;96573.81;10339283;28;20121;-30
2023/06/29 05:47:58;;;;;;;5.07;1.77;;;;;;;19.69;57.99;96560.25;10338650;28;20504;-28
2023/06/29 05:52:59;;;;;;;3.40;1.57;;;;;;;19.76;56.50;96567.00;10369278;28;20042;-29
2023/06/29 05:57:59;;;;;;;2.50;1.63;;;;;;;19.85;56.42;96571.19;10364095;28;20465;-30
2023/06/29 06:02:59;;;;;;;3.20;1.70;;;;;;;19.81;58.23;96574.56;10370649;28;20041;-29
2023/06/29 06:08:00;;;;;;;3.23;1.97;;;;;;;19.87;57.74;96577.06;10357578;28;20048;-30
2023/06/29 06:13:02;;;;;;;5.13;2.10;;;;;;;19.88;58.72;96578.75;10336506;28;20038;-29
2023/06/29 06:18:03;;;;;;;3.38;2.28;;;;;;;20.01;58.51;96583.72;10366636;28;20116;-30
2023/06/29 06:23:03;;;;;;;5.13;2.40;;;;;;;20.11;58.52;96585.38;10357515;28;20578;-30
2023/06/29 06:28:03;;;;;;;4.83;2.07;;;;;;;20.21;58.43;96586.13;10326863;28;20402;-30
2023/06/29 06:33:04;;;;;;;4.85;2.40;;;;;;;20.28;58.40;96580.16;10359755;28;20034;-30
2023/06/29 06:38:04;;;;;;;4.33;1.97;;;;;;;20.39;56.88;96571.56;10359192;28;20097;-30
2023/06/29 06:43:05;;;;;;;3.80;2.13;;;;;;;20.44;56.75;96591.00;10351000;28;20296;-30
2023/06/29 06:48:05;;;;;;;4.80;2.00;;;;;;;20.42;57.15;96580.00;10358134;28;20047;-30
2023/06/29 06:53:05;;;;;;;4.23;2.60;;;;;;;20.39;57.87;96579.19;10346543;28;20050;-30
2023/06/29 06:58:06;;;;;;;7.53;2.50;;;;;;;20.33;58.67;96575.88;10335807;28;20620;-30
2023/06/29 07:03:06;;;;;;;5.40;1.93;;;;;;;20.31;58.11;96572.47;10353585;28;20030;-30
2023/06/29 07:08:06;;;;;;;3.03;2.37;;;;;;;20.31;57.75;96575.03;10369748;28;20042;-30
2023/06/29 07:13:07;;;;;;;3.80;2.10;;;;;;;20.32;57.87;96580.09;10363259;28;20045;-30
2023/06/29 07:18:07;;;;;;;4.37;2.33;;;;;;;20.39;57.80;96574.94;10338862;28;20041;-30
2023/06/29 07:23:07;;;;;;;3.93;2.60;;;;;;;20.47;57.57;96580.78;10335903;28;20125;-30
2023/06/29 07:28:08;;;;;;;5.77;2.33;;;;;;;20.48;57.59;96581.66;10341532;28;20093;-30
2023/06/29 07:33:08;;;;;;;3.28;2.50;;;;;;;20.44;57.75;96579.97;10341117;28;20037;-29
2023/06/29 07:38:08;;;;;;;5.20;2.13;;;;;;;20.45;57.59;96581.69;10340337;28;20038;-30
2023/06/29 07:43:09;;;;;;;5.13;2.40;;;;;;;20.44;57.29;96575.75;10356724;28;20045;-30
2023/06/29 07:48:09;;;;;;;6.78;2.17;;;;;;;20.43;56.72;96568.97;10346988;28;20034;-29
2023/06/29 07:53:10;;;;;;;6.80;2.50;;;;;;;20.44;56.37;96568.13;10349015;28;20558;-30
2023/06/29 07:58:10;;;;;;;4.47;1.97;;;;;;;20.54;56.62;96562.06;10347951;28;20034;-30
2023/06/29 08:03:10;;;;;;;3.67;2.20;;;;;;;20.62;56.31;96560.28;10354974;28;20030;-30
2023/06/29 08:08:12;;;;;;;6.50;1.90;;;;;;;20.71;56.17;96564.44;10339993;28;20293;-30
2023/06/29 08:13:12;;;;;;;2.80;1.92;;;;;;;20.75;56.00;96559.31;10347734;28;20043;-30
2023/06/29 08:18:12;;;;;;;3.60;1.90;;;;;;;20.76;56.60;96558.44;10347107;28;20086;-30
2023/06/29 08:23:14;;;;;;;4.53;2.33;;;;;;;20.83;56.45;96560.06;10331411;28;20303;-30
2023/06/29 08:28:14;;;;;;;3.13;1.90;;;;;;;20.80;56.37;96559.25;10346970;28;20061;-30
2023/06/29 08:33:14;;;;;;;4.07;1.97;;;;;;;20.82;56.58;96557.53;10345891;28;20105;-30
2023/06/29 08:38:15;;;;;;;5.30;2.10;;;;;;;20.88;56.48;96553.22;10338494;28;20045;-30
2023/06/29 08:43:16;;;;;;;4.27;2.47;;;;;;;20.86;56.27;96549.00;10353465;28;20037;-30
2023/06/29 08:48:18;;;;;;;4.30;1.85;;;;;;;20.90;56.36;96536.22;10330040;28;20276;-30
2023/06/29 08:53:19;;;;;;;4.57;2.00;;;;;;;20.97;56.34;96532.75;10331029;28;20104;-30
2023/06/29 08:58:22;;;;;;;3.17;1.92;;;;;;;20.96;56.09;96525.97;10340066;28;20088;-30
2023/06/29 09:03:24;;;;;;;4.07;2.63;;;;;;;21.00;56.04;96525.09;10338384;28;20129;-30
2023/06/29 09:08:24;;;;;;;2.17;1.73;;;;;;;20.98;56.30;96518.34;10361472;28;20034;-30
2023/06/29 09:13:26;;;;;;;4.20;2.00;;;;;;;20.85;56.54;96525.25;10345355;28;20034;-30
2023/06/29 09:18:28;;;;;;;2.88;1.98;;;;;;;20.94;56.51;96527.72;10351995;28;20046;-30
2023/06/29 09:23:28;;;;;;;4.05;1.85;;;;;;;20.99;56.40;96533.56;10353203;28;20062;-30
2023/06/29 09:28:29;;;;;;;2.63;1.92;;;;;;;21.00;56.40;96532.72;10346376;28;20043;-30
2023/06/29 09:33:29;;;;;;;5.20;2.10;;;;;;;21.03;56.25;96534.38;10353451;28;20031;-30
2023/06/29 09:38:31;;;;;;;4.63;2.87;;;;;;;20.88;56.34;96530.31;10353430;28;20048;-30
2023/06/29 09:43:32;;;;;;;3.85;1.90;;;;;;;20.71;56.53;96534.75;10350657;28;20050;-33
2023/06/29 09:48:33;;;;;;;5.57;2.25;;;;;;;20.87;56.31;96530.38;10357693;28;20069;-31
2023/06/29 09:53:33;;;;;;;7.95;2.08;;;;;;;20.96;56.02;96525.97;10351401;28;20037;-30
2023/06/29 09:58:34;;;;;;;3.43;1.80;;;;;;;20.91;56.17;96522.66;10343703;28;20042;-29
2023/06/29 10:03:34;;;;;;;2.08;1.67;;;;;;;20.76;56.63;96525.38;10351913;28;20044;-31
2023/06/29 10:08:36;;;;;;;3.80;1.87;;;;;;;20.70;56.62;96522.03;10333980;28;20502;-30
2023/06/29 10:13:46;;;;;;;2.92;1.70;;;;;;;20.82;56.83;96515.09;10345470;28;20120;-29
2023/06/29 10:18:50;;;;;;;2.72;1.80;;;;;;;20.85;56.80;96512.53;10356080;28;20453;-30
2023/06/29 10:23:52;;;;;;;4.22;1.83;;;;;;;20.86;56.88;96514.25;10359274;28;20029;-30
2023/06/29 10:28:52;;;;;;;3.63;1.80;;;;;;;20.86;56.74;96506.59;10350783;28;20622;-30
2023/06/29 10:33:53;;;;;;;3.28;1.85;;;;;;;20.87;56.83;96505.75;10338238;28;20101;-29
2023/06/29 10:38:53;;;;;;;2.93;1.87;;;;;;;20.95;56.34;96503.94;10346870;28;20034;-30
2023/06/29 10:43:58;;;;;;;3.50;1.90;;;;;;;20.96;56.10;96503.06;10356090;28;20068;-30
2023/06/29 10:48:59;;;;;;;5.20;1.98;;;;;;;21.05;57.02;96490.22;10357568;28;20068;-30
2023/06/29 10:54:02;;;;;;;3.70;1.65;;;;;;;21.06;57.08;96493.63;10346939;28;20039;-30
2023/06/29 10:59:08;;;;;;;10.25;2.58;;;;;;;21.16;56.84;96493.47;10349760;28;20038;-31
2023/06/29 11:04:09;;;;;;;8.93;2.70;;;;;;;21.18;56.99;96489.19;10338741;28;20474;-30
2023/06/29 11:09:14;;;;;;;7.88;2.42;;;;;;;21.19;57.41;96483.25;10340748;28;20049;-30
2023/06/29 11:14:15;;;;;;;6.30;2.17;;;;;;;21.25;57.04;96472.97;10350258;28;20021;-30
2023/06/29 11:19:15;;;;;;;6.60;2.60;;;;;;;21.30;57.05;96483.91;10367670;28;20032;-31
2023/06/29 11:24:18;;;;;;;4.33;2.43;;;;;;;21.28;56.88;96480.56;10358851;28;20041;-30
2023/06/29 11:29:21;;;;;;;4.57;2.90;;;;;;;21.30;56.85;96481.38;10380934;28;20116;-31
2023/06/29 11:34:21;;;;;;;3.83;2.30;;;;;;;21.29;56.92;96472.06;10357211;28;20088;-31
2023/06/29 11:39:23;;;;;;;4.47;2.90;;;;;;;21.33;56.79;96486.44;10364972;28;20042;-31
2023/06/29 11:44:25;;;;;;;5.07;2.78;;;;;;;21.35;56.73;96473.66;10349690;28;20504;-31
2023/06/29 11:49:26;;;;;;;4.80;3.05;;;;;;;21.36;57.02;96478.75;10364738;28;20125;-31
2023/06/29 11:54:29;;;;;;;4.75;3.08;;;;;;;21.37;57.22;96470.22;10358350;28;20456;-31
2023/06/29 11:59:29;;;;;;;4.50;2.67;;;;;;;21.40;56.85;96471.91;10371323;28;20038;-31
2023/06/29 12:04:30;;;;;;;5.67;2.77;;;;;;;21.39;56.83;96462.59;10354800;28;20034;-30
2023/06/29 12:09:35;;;;;;;6.97;2.80;;;;;;;21.26;56.86;96456.84;10363979;28;20513;-30
2023/06/29 12:14:37;;;;;;;4.88;2.78;;;;;;;21.24;56.94;96445.81;10364286;28;20037;-30
2023/06/29 12:19:38;;;;;;;3.35;2.72;;;;;;;21.32;56.79;96459.25;10355337;28;20057;-30
2023/06/29 12:24:38;;;;;;;6.57;3.10;;;;;;;21.35;56.89;96450.75;10353378;28;20034;-30
2023/06/29 12:29:39;;;;;;;5.27;2.43;;;;;;;21.33;57.00;96450.78;10346341;28;20042;-30
2023/06/29 12:34:39;;;;;;;6.83;2.90;;;;;;;21.33;57.13;96450.78;10364702;28;20041;-33
2023/06/29 12:39:39;;;;;;;5.07;3.07;;;;;;;21.45;56.96;96440.41;10360023;28;20042;-30
2023/06/29 12:44:40;;;;;;;4.47;2.47;;;;;;;21.45;56.60;96439.53;10338531;28;20517;-31
2023/06/29 12:49:40;;;;;;;4.73;3.27;;;;;;;21.47;56.83;96453.13;10352867;28;20284;-30
2023/06/29 12:54:40;;;;;;;5.23;2.97;;;;;;;21.39;56.70;96440.47;10346184;28;20030;-31
2023/06/29 12:59:41;;;;;;;4.40;3.17;;;;;;;21.37;57.10;96452.41;10352136;28;20038;-33
2023/06/29 13:04:41;;;;;;;4.00;2.70;;;;;;;21.32;56.84;96440.63;10345571;28;20661;-31
2023/06/29 13:09:43;;;;;;;5.47;2.63;;;;;;;21.37;56.73;96442.22;10361204;28;20048;-31
2023/06/29 13:14:45;;;;;;;7.78;2.70;;;;;;;21.41;56.94;96446.38;10353288;28;20402;-31
2023/06/29 13:19:47;;;;;;;5.05;2.60;;;;;;;21.37;56.84;96439.69;10353138;28;20097;-32
2023/06/29 13:24:47;;;;;;;3.53;2.28;;;;;;;21.27;57.19;96435.59;10343909;28;20036;-30
2023/06/29 13:29:48;;;;;;;4.77;2.80;;;;;;;21.32;57.23;96438.06;10358107;28;20040;-31
2023/06/29 13:34:48;;;;;;;6.70;2.90;;;;;;;21.29;57.19;96438.94;10338671;28;20038;-31
2023/06/29 13:39:48;;;;;;;4.90;2.80;;;;;;;21.26;57.11;96444.09;10376118;28;20091;-30
2023/06/29 13:44:49;;;;;;;9.85;3.40;;;;;;;21.29;57.30;96428.75;10356395;28;20125;-31
2023/06/29 13:49:50;;;;;;;4.63;3.17;;;;;;;21.33;57.48;96434.66;10345414;28;20109;-31
2023/06/29 13:54:50;;;;;;;5.78;2.92;;;;;;;21.30;57.40;96430.44;10356713;28;20030;-31
2023/06/29 13:59:51;;;;;;;7.00;2.90;;;;;;;21.41;57.01;96423.47;10335004;28;20038;-31
2023/06/29 14:04:51;;;;;;;5.33;3.00;;;;;;;21.39;57.31;96420.09;10334987;28;20074;-31
2023/06/29 14:09:51;;;;;;;3.93;2.70;;;;;;;21.42;57.28;96412.44;10334921;28;20053;-31
2023/06/29 14:14:52;;;;;;;5.10;2.97;;;;;;;21.44;57.23;96410.69;10342757;28;20039;-30
2023/06/29 14:19:53;;;;;;;5.23;2.50;;;;;;;21.50;57.25;96410.59;10341304;28;20057;-31
2023/06/29 14:24:53;;;;;;;5.45;2.80;;;;;;;21.41;57.25;96413.28;10345857;28;20797;-30
2023/06/29 14:29:53;;;;;;;6.20;3.33;;;;;;;21.41;57.48;96397.16;10342612;28;20052;-32
2023/06/29 14:34:54;;;;;;;7.32;3.33;;;;;;;21.44;57.71;96392.88;10342789;28;20498;-31
2023/06/29 14:39:54;;;;;;;9.53;3.30;;;;;;;21.50;58.15;96390.22;10342187;28;20041;-30
2023/06/29 14:44:55;;;;;;;12.45;3.53;;;;;;;21.57;58.12;96394.31;10343000;28;20045;-31
2023/06/29 14:49:55;;;;;;;12.80;4.43;;;;;;;21.67;58.77;96383.16;10339504;28;20038;-31
2023/06/29 14:54:55;;;;;;;11.57;4.73;;;;;;;21.72;59.14;96377.97;10351848;28;20310;-31
2023/06/29 14:59:56;;;;;;;8.93;4.67;;;;;;;21.58;59.46;96373.09;10363601;28;20038;-30
2023/06/29 15:04:58;;;;;;;14.48;4.53;;;;;;;21.63;59.96;96368.75;10363337;28;20046;-31
2023/06/29 15:09:59;;;;;;;13.10;5.13;;;;;;;21.67;60.16;96375.53;10369398;28;20670;-31
2023/06/29 15:15:01;;;;;;;16.43;5.27;;;;;;;21.71;59.65;96363.56;10346648;28;20121;-30
2023/06/29 15:20:02;;;;;;;11.48;4.75;;;;;;;21.71;59.48;96361.03;10349576;28;20388;-31
2023/06/29 15:25:03;;;;;;;6.93;4.38;;;;;;;21.72;59.32;96363.53;10360198;28;20037;-31
2023/06/29 15:30:05;;;;;;;8.13;4.32;;;;;;;21.69;59.14;96350.84;10337213;28;20034;-31
2023/06/29 15:35:05;;;;;;;8.50;4.97;;;;;;;21.66;58.94;96342.41;10346480;28;20190;-31
2023/06/29 15:40:07;;;;;;;8.07;4.53;;;;;;;21.65;58.31;96346.66;10349523;28;20121;-31
2023/06/29 15:45:07;;;;;;;10.90;4.55;;;;;;;21.53;58.63;96334.13;10345181;28;20494;-30
2023/06/29 15:50:08;;;;;;;6.60;4.20;;;;;;;21.49;58.97;96335.03;10336692;28;20057;-30
2023/06/29 15:55:08;;;;;;;9.98;4.07;;;;;;;21.43;59.03;96316.47;10340891;28;20022;-31
2023/06/29 16:00:09;;;;;;;7.90;4.07;;;;;;;21.47;59.34;96316.41;10342972;28;20042;-30
2023/06/29 16:05:12;;;;;;;7.93;4.18;;;;;;;21.40;59.15;96312.28;10340988;28;20293;-31
2023/06/29 16:10:13;;;;;;;7.20;3.90;;;;;;;21.40;58.90;96312.28;10337799;28;20034;-30
2023/06/29 16:15:13;;;;;;;12.43;5.67;;;;;;;21.53;59.20;96318.84;10347583;28;20026;-30
2023/06/29 16:20:13;;;;;;;7.75;5.00;;;;;;;21.39;58.67;96313.16;10356800;28;20089;-31
2023/06/29 16:25:14;;;;;;;10.33;4.90;;;;;;;21.50;59.03;96315.50;10345494;28;20037;-30
2023/06/29 16:30:14;;;;;;;10.47;5.90;;;;;;;21.44;58.07;96316.47;10371323;28;20064;-31
2023/06/29 16:35:15;;;;;;;7.93;4.93;;;;;;;21.54;60.41;96317.97;10362980;28;20794;-30
2023/06/29 16:40:15;;;;;;;7.32;4.70;;;;;;;21.58;60.39;96324.69;10357856;28;20277;-31
2023/06/29 16:45:15;;;;;;;9.67;5.57;;;;;;;21.46;60.09;96329.19;10346414;28;20038;-30
2023/06/29 16:50:16;;;;;;;10.33;5.30;;;;;;;21.51;60.80;96323.13;10342829;28;20490;-30
2023/06/29 16:55:16;;;;;;;11.20;5.77;;;;;;;21.42;60.13;96325.00;10351325;28;20468;-31
2023/06/29 17:00:17;;;;;;;7.17;5.53;;;;;;;21.48;60.46;96333.34;10352719;28;20037;-31
2023/06/29 17:05:17;;;;;;;11.00;5.50;;;;;;;21.58;60.87;96329.78;10347189;28;20129;-31
2023/06/29 17:10:17;;;;;;;8.17;4.90;;;;;;;21.53;60.67;96331.56;10356427;28;20036;-31
2023/06/29 17:15:18;;;;;;;9.47;5.10;;;;;;;21.65;60.50;96335.66;10363137;28;20045;-31
2023/06/29 17:20:19;;;;;;;8.20;5.78;;;;;;;21.76;60.23;96329.47;10353859;28;20777;-31
2023/06/29 17:25:19;;;;;;;17.00;5.83;;;;;;;21.81;60.74;96335.31;10354716;28;20042;-30
2023/06/29 17:30:20;;;;;;;18.50;7.70;;;;;;;21.82;60.64;96334.44;10360998;28;20284;-31
2023/06/29 17:35:22;;;;;;;15.15;7.38;;;;;;;21.85;60.75;96333.53;10356267;28;20040;-31
2023/06/29 17:40:23;;;;;;;14.27;7.35;;;;;;;21.86;60.99;96325.03;10353470;28;20037;-30
2023/06/29 17:45:26;;;;;;;15.10;7.27;;;;;;;21.88;60.91;96334.31;10354568;28;20030;-31
2023/06/29 17:50:26;;;;;;;12.07;7.13;;;;;;;21.79;60.75;96334.50;10361244;28;20376;-31
2023/06/29 17:55:26;;;;;;;13.47;7.23;;;;;;;21.61;61.30;96334.81;10341284;28;20052;-31
2023/06/29 18:00:27;;;;;;;12.68;7.20;;;;;;;21.62;61.00;96331.41;10343615;28;20041;-31
2023/06/29 18:05:27;;;;;;;10.32;7.15;;;;;;;21.70;60.27;96329.59;10342858;28;20026;-31
2023/06/29 18:10:27;;;;;;;10.87;7.13;;;;;;;21.73;60.75;96334.63;10351299;28;20087;-30
2023/06/29 18:15:28;;;;;;;14.70;7.80;;;;;;;21.84;61.54;96330.19;10349593;28;20040;-31
2023/06/29 18:20:28;;;;;;;13.93;7.43;;;;;;;21.87;60.78;96337.75;10378356;28;20066;-31
2023/06/29 18:25:29;;;;;;;11.77;7.50;;;;;;;21.88;60.69;96343.69;10352302;28;20383;-30
2023/06/29 18:30:29;;;;;;;15.77;7.70;;;;;;;21.88;60.83;96341.97;10341374;28;20285;-32
2023/06/29 18:35:29;;;;;;;13.93;8.33;;;;;;;21.87;61.12;96337.75;10355932;28;20049;-31
2023/06/29 18:40:30;;;;;;;14.20;8.13;;;;;;;21.88;61.86;96339.44;10359339;28;20030;-31
2023/06/29 18:45:30;;;;;;;18.67;8.70;;;;;;;21.86;61.79;96345.41;10366070;28;20116;-32
2023/06/29 18:50:31;;;;;;;14.38;8.40;;;;;;;21.84;61.94;96342.91;10380420;28;20037;-30
2023/06/29 18:55:34;;;;;;;11.13;7.45;;;;;;;21.85;61.33;96342.03;10354197;28;20034;-31
2023/06/29 19:00:35;;;;;;;10.90;6.93;;;;;;;21.79;61.11;96344.69;10358592;28;20030;-32
2023/06/29 19:05:36;;;;;;;11.68;8.63;;;;;;;21.75;61.65;96338.00;10367759;28;20030;-31
2023/06/29 19:10:37;;;;;;;12.10;7.63;;;;;;;21.73;61.85;96334.63;10359786;28;20128;-30
2023/06/29 19:15:40;;;;;;;12.13;7.82;;;;;;;21.69;62.20;96329.59;10384387;28;20280;-31
2023/06/29 19:20:40;;;;;;;11.77;7.50;;;;;;;21.61;61.67;96329.72;10357143;28;20030;-31
2023/06/29 19:25:41;;;;;;;10.13;6.57;;;;;;;21.42;60.58;96333.47;10362792;28;20053;-32
2023/06/29 19:30:42;;;;;;;9.80;7.13;;;;;;;21.42;60.13;96337.72;10355277;28;20450;-30
2023/06/29 19:35:42;;;;;;;11.88;7.13;;;;;;;21.36;60.17;96341.22;10379680;28;20398;-30
2023/06/29 19:40:43;;;;;;;11.23;6.35;;;;;;;21.36;59.90;96342.91;10357388;28;20420;-30
2023/06/29 19:45:45;;;;;;;10.23;7.17;;;;;;;21.38;59.96;96346.31;10365701;28;20041;-31
2023/06/29 19:50:47;;;;;;;10.95;7.13;;;;;;;21.44;60.65;96347.03;10355532;28;20026;-31
2023/06/29 19:55:48;;;;;;;9.45;7.13;;;;;;;21.42;59.98;96348.75;10357332;28;20061;-31
2023/06/29 20:00:49;;;;;;;13.55;7.50;;;;;;;21.31;59.87;96343.00;10355678;28;20553;-33
2023/06/29 20:05:49;;;;;;;9.40;7.18;;;;;;;21.25;59.76;96349.91;10373537;28;20042;-32
2023/06/29 20:10:50;;;;;;;10.00;7.20;;;;;;;21.21;59.89;96355.94;10353889;28;20033;-31
2023/06/29 20:15:50;;;;;;;12.65;7.53;;;;;;;21.15;59.70;96349.19;10346496;28;20029;-31
2023/06/29 20:20:50;;;;;;;10.87;7.33;;;;;;;21.16;59.62;96350.06;10345621;28;20022;-31
2023/06/29 20:25:51;;;;;;;13.70;7.57;;;;;;;21.16;59.56;96343.28;10354062;28;20491;-31
2023/06/29 20:30:52;;;;;;;11.73;7.43;;;;;;;21.24;59.73;96354.13;10358301;28;20336;-31
2023/06/29 20:35:53;;;;;;;9.07;7.07;;;;;;;21.26;59.17;96356.66;10353833;28;20022;-32
2023/06/29 20:40:53;;;;;;;10.37;8.07;;;;;;;21.20;59.22;96347.44;10361306;28;20391;-31
2023/06/29 20:45:54;;;;;;;10.47;7.70;;;;;;;21.15;59.26;96356.84;10354086;28;20418;-32
2023/06/29 20:50:54;;;;;;;10.52;7.10;;;;;;;21.12;59.50;96354.34;10356278;28;20406;-31
2023/06/29 20:55:55;;;;;;;13.07;7.97;;;;;;;21.10;59.88;96360.31;10353731;28;20038;-31
2023/06/29 21:00:56;;;;;;;14.13;7.63;;;;;;;21.05;59.54;96357.84;10350372;28;20506;-31
2023/06/29 21:05:56;;;;;;;12.20;8.52;;;;;;;21.04;59.91;96358.72;10339742;28;20042;-30
2023/06/29 21:10:57;;;;;;;13.03;8.43;;;;;;;21.07;60.23;96363.75;10326227;28;20429;-30
2023/06/29 21:15:57;;;;;;;11.10;7.10;;;;;;;21.07;60.35;96358.66;10336979;28;20034;-30
2023/06/29 21:20:58;;;;;;;13.40;8.35;;;;;;;21.10;60.45;96353.53;10329289;28;20505;-30
2023/06/29 21:25:59;;;;;;;10.38;7.68;;;;;;;21.11;60.18;96347.59;10336145;28;20274;-30
2023/06/29 21:31:00;;;;;;;11.77;8.55;;;;;;;21.01;60.39;96346.06;10328274;28;20045;-31
2023/06/29 21:36:01;;;;;;;15.63;8.02;;;;;;;21.00;60.44;96340.97;10328365;28;20097;-31
2023/06/29 21:41:01;;;;;;;9.40;7.80;;;;;;;20.94;60.43;96339.38;10334937;28;20038;-30
2023/06/29 21:46:02;;;;;;;12.47;8.47;;;;;;;20.94;60.46;96336.84;10327544;28;20121;-31
2023/06/29 21:51:02;;;;;;;11.02;7.80;;;;;;;20.93;60.34;96332.63;10336036;28;20042;-31
2023/06/29 21:56:03;;;;;;;16.27;7.80;;;;;;;20.94;60.49;96334.28;10342193;28;20065;-31
2023/06/29 22:01:04;;;;;;;10.30;8.13;;;;;;;20.90;60.86;96332.63;10342706;28;20035;-30
2023/06/29 22:06:05;;;;;;;12.25;8.60;;;;;;;20.89;60.68;96325.06;10334212;28;20305;-30
2023/06/29 22:11:05;;;;;;;14.27;8.47;;;;;;;20.90;60.71;96319.91;10335268;28;20038;-31
2023/06/29 22:16:05;;;;;;;13.73;8.97;;;;;;;20.92;60.56;96314.81;10335215;28;20501;-31
2023/06/29 22:21:06;;;;;;;13.27;8.23;;;;;;;20.89;60.57;96315.69;10326775;28;20446;-30
2023/06/29 22:26:07;;;;;;;9.25;7.55;;;;;;;20.88;60.36;96314.03;10333830;28;20297;-31
2023/06/29 22:31:07;;;;;;;12.20;7.83;;;;;;;20.87;60.36;96316.59;10326653;28;20073;-31
2023/06/29 22:36:08;;;;;;;11.47;8.30;;;;;;;20.91;60.17;96316.53;10326864;28;20050;-31
2023/06/29 22:41:08;;;;;;;12.50;8.05;;;;;;;20.88;60.36;96308.94;10334814;28;20653;-31
2023/06/29 22:46:09;;;;;;;13.23;7.95;;;;;;;20.87;60.29;96299.63;10326227;28;20078;-30
2023/06/29 22:51:11;;;;;;;14.15;8.43;;;;;;;20.80;60.50;96305.63;10344941;28;20173;-30
2023/06/29 22:56:12;;;;;;;13.10;7.95;;;;;;;20.82;60.88;96303.06;10325834;28;20053;-31
2023/06/29 23:01:14;;;;;;;11.70;8.37;;;;;;;20.83;60.75;96305.59;10339893;28;20045;-31
2023/06/29 23:06:15;;;;;;;11.05;8.40;;;;;;;20.79;61.07;96303.97;10344620;28;20046;-30
2023/06/29 23:11:15;;;;;;;13.37;8.83;;;;;;;20.78;61.04;96301.44;10331422;28;20038;-30